sensor_id;sensor_type;location;lat;lon;timestamp;P1;durP1;ratioP1;P2;durP2;ratioP2
79751;SDS011;69234;47.446;21.636;2023-12-29T00:00:28;53.47;;;52.50;;
79751;SDS011;69234;47.446;21.636;2023-12-29T00:00:59;55.97;;;54.30;;
79751;SDS011;69234;47.446;21.636;2023-12-29T00:01:31;55.47;;;53.80;;
79751;SDS011;69234;47.446;21.636;2023-12-29T00:02:02;53.37;;;51.67;;
79751;SDS011;69234;47.446;21.636;2023-12-29T00:02:33;52.90;;;51.33;;
79751;SDS011;69234;47.446;21.636;2023-12-29T00:03:04;53.20;;;51.67;;
79751;SDS011;69234;47.446;21.636;2023-12-29T00:03:35;54.60;;;53.07;;
79751;SDS011;69234;47.446;21.636;2023-12-29T00:04:06;53.10;;;51.77;;
79751;SDS011;69234;47.446;21.636;2023-12-29T00:04:37;54.30;;;52.80;;
79751;SDS011;69234;47.446;21.636;2023-12-29T00:05:08;55.13;;;53.70;;
79751;SDS011;69234;47.446;21.636;2023-12-29T00:05:39;55.10;;;53.80;;
79751;SDS011;69234;47.446;21.636;2023-12-29T00:06:10;55.60;;;54.30;;
79751;SDS011;69234;47.446;21.636;2023-12-29T00:06:41;54.93;;;53.63;;
79751;SDS011;69234;47.446;21.636;2023-12-29T00:07:12;56.23;;;54.77;;
79751;SDS011;69234;47.446;21.636;2023-12-29T00:07:43;57.30;;;55.67;;
79751;SDS011;69234;47.446;21.636;2023-12-29T00:08:14;56.23;;;54.93;;
79751;SDS011;69234;47.446;21.636;2023-12-29T00:08:45;56.60;;;55.10;;
79751;SDS011;69234;47.446;21.636;2023-12-29T00:09:17;54.40;;;52.77;;
79751;SDS011;69234;47.446;21.636;2023-12-29T00:09:51;54.70;;;53.27;;
79751;SDS011;69234;47.446;21.636;2023-12-29T00:10:22;55.47;;;53.93;;
79751;SDS011;69234;47.446;21.636;2023-12-29T00:10:53;55.50;;;53.77;;
79751;SDS011;69234;47.446;21.636;2023-12-29T00:11:24;55.20;;;53.37;;
79751;SDS011;69234;47.446;21.636;2023-12-29T00:11:55;56.00;;;54.03;;
79751;SDS011;69234;47.446;21.636;2023-12-29T00:12:26;56.30;;;54.57;;
79751;SDS011;69234;47.446;21.636;2023-12-29T00:12:57;54.57;;;53.20;;
79751;SDS011;69234;47.446;21.636;2023-12-29T00:13:27;55.30;;;53.83;;
79751;SDS011;69234;47.446;21.636;2023-12-29T00:13:58;54.70;;;53.13;;
79751;SDS011;69234;47.446;21.636;2023-12-29T00:14:30;53.90;;;52.27;;
79751;SDS011;69234;47.446;21.636;2023-12-29T00:15:01;52.57;;;50.93;;
79751;SDS011;69234;47.446;21.636;2023-12-29T00:15:32;53.27;;;51.40;;
79751;SDS011;69234;47.446;21.636;2023-12-29T00:16:03;53.93;;;52.17;;
79751;SDS011;69234;47.446;21.636;2023-12-29T00:16:35;55.77;;;54.23;;
79751;SDS011;69234;47.446;21.636;2023-12-29T00:17:06;53.43;;;52.73;;
79751;SDS011;69234;47.446;21.636;2023-12-29T00:17:37;52.63;;;51.67;;
79751;SDS011;69234;47.446;21.636;2023-12-29T00:18:10;53.50;;;52.17;;
79751;SDS011;69234;47.446;21.636;2023-12-29T00:18:41;55.33;;;53.83;;
79751;SDS011;69234;47.446;21.636;2023-12-29T00:19:12;54.90;;;53.30;;
79751;SDS011;69234;47.446;21.636;2023-12-29T00:19:43;53.97;;;52.53;;
79751;SDS011;69234;47.446;21.636;2023-12-29T00:20:14;51.97;;;50.93;;
79751;SDS011;69234;47.446;21.636;2023-12-29T00:20:45;54.00;;;52.43;;
79751;SDS011;69234;47.446;21.636;2023-12-29T00:21:16;54.73;;;53.07;;
79751;SDS011;69234;47.446;21.636;2023-12-29T00:21:47;54.97;;;53.43;;
79751;SDS011;69234;47.446;21.636;2023-12-29T00:22:18;54.03;;;52.60;;
79751;SDS011;69234;47.446;21.636;2023-12-29T00:22:48;53.97;;;52.70;;
79751;SDS011;69234;47.446;21.636;2023-12-29T00:23:19;54.57;;;53.27;;
79751;SDS011;69234;47.446;21.636;2023-12-29T00:23:50;54.63;;;53.13;;
79751;SDS011;69234;47.446;21.636;2023-12-29T00:24:21;55.47;;;53.70;;
79751;SDS011;69234;47.446;21.636;2023-12-29T00:24:52;54.83;;;53.43;;
79751;SDS011;69234;47.446;21.636;2023-12-29T00:25:23;52.87;;;51.77;;
79751;SDS011;69234;47.446;21.636;2023-12-29T00:25:54;52.40;;;51.17;;
79751;SDS011;69234;47.446;21.636;2023-12-29T00:26:25;52.07;;;51.20;;
79751;SDS011;69234;47.446;21.636;2023-12-29T00:27:01;54.00;;;52.80;;
79751;SDS011;69234;47.446;21.636;2023-12-29T00:27:32;55.07;;;53.60;;
79751;SDS011;69234;47.446;21.636;2023-12-29T00:28:03;56.87;;;55.27;;
79751;SDS011;69234;47.446;21.636;2023-12-29T00:28:35;54.80;;;53.33;;
79751;SDS011;69234;47.446;21.636;2023-12-29T00:29:10;54.87;;;54.13;;
79751;SDS011;69234;47.446;21.636;2023-12-29T00:29:42;54.23;;;52.97;;
79751;SDS011;69234;47.446;21.636;2023-12-29T00:30:14;53.93;;;52.43;;
79751;SDS011;69234;47.446;21.636;2023-12-29T00:30:45;53.50;;;52.20;;
79751;SDS011;69234;47.446;21.636;2023-12-29T00:31:16;52.37;;;51.00;;
79751;SDS011;69234;47.446;21.636;2023-12-29T00:31:47;51.53;;;50.73;;
79751;SDS011;69234;47.446;21.636;2023-12-29T00:32:18;51.93;;;50.70;;
79751;SDS011;69234;47.446;21.636;2023-12-29T00:32:49;53.93;;;52.33;;
79751;SDS011;69234;47.446;21.636;2023-12-29T00:33:20;53.60;;;51.73;;
79751;SDS011;69234;47.446;21.636;2023-12-29T00:33:51;54.37;;;52.63;;
79751;SDS011;69234;47.446;21.636;2023-12-29T00:34:23;55.07;;;53.37;;
79751;SDS011;69234;47.446;21.636;2023-12-29T00:34:54;55.47;;;53.50;;
79751;SDS011;69234;47.446;21.636;2023-12-29T00:35:26;52.80;;;51.20;;
79751;SDS011;69234;47.446;21.636;2023-12-29T00:35:57;54.33;;;52.80;;
79751;SDS011;69234;47.446;21.636;2023-12-29T00:36:28;53.87;;;52.40;;
79751;SDS011;69234;47.446;21.636;2023-12-29T00:36:59;53.50;;;52.67;;
79751;SDS011;69234;47.446;21.636;2023-12-29T00:37:30;52.83;;;52.17;;
79751;SDS011;69234;47.446;21.636;2023-12-29T00:38:01;53.50;;;51.80;;
79751;SDS011;69234;47.446;21.636;2023-12-29T00:38:32;54.10;;;52.73;;
79751;SDS011;69234;47.446;21.636;2023-12-29T00:39:03;54.17;;;52.90;;
79751;SDS011;69234;47.446;21.636;2023-12-29T00:39:34;54.93;;;53.43;;
79751;SDS011;69234;47.446;21.636;2023-12-29T00:40:08;55.60;;;54.03;;
79751;SDS011;69234;47.446;21.636;2023-12-29T00:40:40;53.60;;;52.20;;
79751;SDS011;69234;47.446;21.636;2023-12-29T00:41:11;52.70;;;51.53;;
79751;SDS011;69234;47.446;21.636;2023-12-29T00:41:42;54.60;;;53.13;;
79751;SDS011;69234;47.446;21.636;2023-12-29T00:42:13;53.93;;;52.23;;
79751;SDS011;69234;47.446;21.636;2023-12-29T00:42:44;53.23;;;51.63;;
79751;SDS011;69234;47.446;21.636;2023-12-29T00:43:15;53.40;;;51.93;;
79751;SDS011;69234;47.446;21.636;2023-12-29T00:43:46;53.03;;;51.70;;
79751;SDS011;69234;47.446;21.636;2023-12-29T00:44:17;52.37;;;50.97;;
79751;SDS011;69234;47.446;21.636;2023-12-29T00:44:48;52.30;;;50.97;;
79751;SDS011;69234;47.446;21.636;2023-12-29T00:45:19;52.07;;;50.80;;
79751;SDS011;69234;47.446;21.636;2023-12-29T00:45:52;52.33;;;50.77;;
79751;SDS011;69234;47.446;21.636;2023-12-29T00:46:23;52.40;;;51.00;;
79751;SDS011;69234;47.446;21.636;2023-12-29T00:46:54;55.77;;;54.30;;
79751;SDS011;69234;47.446;21.636;2023-12-29T00:47:25;54.33;;;52.67;;
79751;SDS011;69234;47.446;21.636;2023-12-29T00:47:56;54.67;;;52.80;;
79751;SDS011;69234;47.446;21.636;2023-12-29T00:48:27;54.20;;;52.37;;
79751;SDS011;69234;47.446;21.636;2023-12-29T00:48:58;53.57;;;51.87;;
79751;SDS011;69234;47.446;21.636;2023-12-29T00:49:29;53.43;;;51.63;;
79751;SDS011;69234;47.446;21.636;2023-12-29T00:50:00;53.03;;;51.00;;
79751;SDS011;69234;47.446;21.636;2023-12-29T00:50:31;54.77;;;52.77;;
79751;SDS011;69234;47.446;21.636;2023-12-29T00:51:02;53.43;;;51.77;;
79751;SDS011;69234;47.446;21.636;2023-12-29T00:51:38;52.03;;;50.63;;
79751;SDS011;69234;47.446;21.636;2023-12-29T00:52:11;51.67;;;50.23;;
79751;SDS011;69234;47.446;21.636;2023-12-29T00:52:42;51.20;;;49.83;;
79751;SDS011;69234;47.446;21.636;2023-12-29T00:53:13;51.90;;;50.47;;
79751;SDS011;69234;47.446;21.636;2023-12-29T00:53:44;51.53;;;50.27;;
79751;SDS011;69234;47.446;21.636;2023-12-29T00:54:15;52.87;;;51.03;;
79751;SDS011;69234;47.446;21.636;2023-12-29T00:54:46;53.10;;;51.03;;
79751;SDS011;69234;47.446;21.636;2023-12-29T00:55:17;53.60;;;51.77;;
79751;SDS011;69234;47.446;21.636;2023-12-29T00:55:48;53.40;;;51.97;;
79751;SDS011;69234;47.446;21.636;2023-12-29T00:56:19;50.50;;;49.23;;
79751;SDS011;69234;47.446;21.636;2023-12-29T00:56:51;52.57;;;51.20;;
79751;SDS011;69234;47.446;21.636;2023-12-29T00:57:22;53.37;;;51.83;;
79751;SDS011;69234;47.446;21.636;2023-12-29T00:57:53;52.77;;;51.27;;
79751;SDS011;69234;47.446;21.636;2023-12-29T00:58:24;52.60;;;51.27;;
79751;SDS011;69234;47.446;21.636;2023-12-29T00:58:55;52.27;;;50.87;;
79751;SDS011;69234;47.446;21.636;2023-12-29T00:59:26;50.50;;;49.57;;
79751;SDS011;69234;47.446;21.636;2023-12-29T00:59:57;50.73;;;49.60;;
79751;SDS011;69234;47.446;21.636;2023-12-29T01:00:28;51.80;;;50.47;;
79751;SDS011;69234;47.446;21.636;2023-12-29T01:00:58;51.13;;;49.67;;
79751;SDS011;69234;47.446;21.636;2023-12-29T01:01:34;51.63;;;50.20;;
79751;SDS011;69234;47.446;21.636;2023-12-29T01:02:05;50.53;;;49.17;;
79751;SDS011;69234;47.446;21.636;2023-12-29T01:02:37;50.43;;;49.00;;
79751;SDS011;69234;47.446;21.636;2023-12-29T01:03:09;52.00;;;50.30;;
79751;SDS011;69234;47.446;21.636;2023-12-29T01:03:40;53.57;;;51.93;;
79751;SDS011;69234;47.446;21.636;2023-12-29T01:04:11;51.83;;;50.43;;
79751;SDS011;69234;47.446;21.636;2023-12-29T01:04:42;51.73;;;50.20;;
79751;SDS011;69234;47.446;21.636;2023-12-29T01:05:14;51.03;;;49.53;;
79751;SDS011;69234;47.446;21.636;2023-12-29T01:05:47;50.70;;;49.63;;
79751;SDS011;69234;47.446;21.636;2023-12-29T01:06:18;50.43;;;49.83;;
79751;SDS011;69234;47.446;21.636;2023-12-29T01:06:49;49.37;;;48.70;;
79751;SDS011;69234;47.446;21.636;2023-12-29T01:07:20;50.70;;;49.70;;
79751;SDS011;69234;47.446;21.636;2023-12-29T01:07:51;50.20;;;48.93;;
79751;SDS011;69234;47.446;21.636;2023-12-29T01:08:22;51.43;;;50.17;;
79751;SDS011;69234;47.446;21.636;2023-12-29T01:08:53;51.43;;;50.37;;
79751;SDS011;69234;47.446;21.636;2023-12-29T01:09:23;50.77;;;49.80;;
79751;SDS011;69234;47.446;21.636;2023-12-29T01:09:56;50.80;;;49.70;;
79751;SDS011;69234;47.446;21.636;2023-12-29T01:10:27;50.53;;;49.27;;
79751;SDS011;69234;47.446;21.636;2023-12-29T01:10:58;50.87;;;49.60;;
79751;SDS011;69234;47.446;21.636;2023-12-29T01:11:29;51.97;;;50.53;;
79751;SDS011;69234;47.446;21.636;2023-12-29T01:11:59;52.23;;;50.90;;
79751;SDS011;69234;47.446;21.636;2023-12-29T01:12:30;52.70;;;51.30;;
79751;SDS011;69234;47.446;21.636;2023-12-29T01:13:01;53.70;;;52.23;;
79751;SDS011;69234;47.446;21.636;2023-12-29T01:13:32;52.93;;;51.57;;
79751;SDS011;69234;47.446;21.636;2023-12-29T01:14:03;53.00;;;51.43;;
79751;SDS011;69234;47.446;21.636;2023-12-29T01:14:34;53.13;;;51.63;;
79751;SDS011;69234;47.446;21.636;2023-12-29T01:15:05;51.77;;;50.53;;
79751;SDS011;69234;47.446;21.636;2023-12-29T01:15:37;52.77;;;51.43;;
79751;SDS011;69234;47.446;21.636;2023-12-29T01:16:08;53.33;;;52.00;;
79751;SDS011;69234;47.446;21.636;2023-12-29T01:16:39;53.43;;;52.17;;
79751;SDS011;69234;47.446;21.636;2023-12-29T01:17:12;53.07;;;51.67;;
79751;SDS011;69234;47.446;21.636;2023-12-29T01:17:43;52.53;;;51.13;;
79751;SDS011;69234;47.446;21.636;2023-12-29T01:18:13;52.37;;;50.90;;
79751;SDS011;69234;47.446;21.636;2023-12-29T01:18:44;52.03;;;50.53;;
79751;SDS011;69234;47.446;21.636;2023-12-29T01:19:15;52.57;;;51.17;;
79751;SDS011;69234;47.446;21.636;2023-12-29T01:19:46;50.73;;;49.43;;
79751;SDS011;69234;47.446;21.636;2023-12-29T01:20:17;51.90;;;50.60;;
79751;SDS011;69234;47.446;21.636;2023-12-29T01:20:48;51.83;;;50.53;;
79751;SDS011;69234;47.446;21.636;2023-12-29T01:21:19;51.73;;;50.17;;
79751;SDS011;69234;47.446;21.636;2023-12-29T01:21:50;51.63;;;50.00;;
79751;SDS011;69234;47.446;21.636;2023-12-29T01:22:21;50.37;;;48.93;;
79751;SDS011;69234;47.446;21.636;2023-12-29T01:22:53;49.97;;;48.73;;
79751;SDS011;69234;47.446;21.636;2023-12-29T01:23:24;52.03;;;50.57;;
79751;SDS011;69234;47.446;21.636;2023-12-29T01:23:55;53.57;;;52.03;;
79751;SDS011;69234;47.446;21.636;2023-12-29T01:24:26;53.50;;;52.03;;
79751;SDS011;69234;47.446;21.636;2023-12-29T01:24:59;55.73;;;54.20;;
79751;SDS011;69234;47.446;21.636;2023-12-29T01:25:31;57.53;;;56.00;;
79751;SDS011;69234;47.446;21.636;2023-12-29T01:26:02;58.17;;;56.03;;
79751;SDS011;69234;47.446;21.636;2023-12-29T01:26:38;57.63;;;55.73;;
79751;SDS011;69234;47.446;21.636;2023-12-29T01:27:09;57.07;;;55.30;;
79751;SDS011;69234;47.446;21.636;2023-12-29T01:27:40;59.17;;;57.40;;
79751;SDS011;69234;47.446;21.636;2023-12-29T01:28:11;56.83;;;55.30;;
79751;SDS011;69234;47.446;21.636;2023-12-29T01:28:42;56.63;;;55.07;;
79751;SDS011;69234;47.446;21.636;2023-12-29T01:29:13;57.87;;;56.20;;
79751;SDS011;69234;47.446;21.636;2023-12-29T01:29:44;57.43;;;55.43;;
79751;SDS011;69234;47.446;21.636;2023-12-29T01:30:15;56.23;;;54.33;;
79751;SDS011;69234;47.446;21.636;2023-12-29T01:30:46;55.23;;;53.53;;
79751;SDS011;69234;47.446;21.636;2023-12-29T01:31:17;53.80;;;52.20;;
79751;SDS011;69234;47.446;21.636;2023-12-29T01:31:48;54.53;;;52.97;;
79751;SDS011;69234;47.446;21.636;2023-12-29T01:32:19;57.17;;;55.33;;
79751;SDS011;69234;47.446;21.636;2023-12-29T01:32:52;60.80;;;59.03;;
79751;SDS011;69234;47.446;21.636;2023-12-29T01:33:23;65.10;;;63.03;;
79751;SDS011;69234;47.446;21.636;2023-12-29T01:33:54;65.73;;;63.40;;
79751;SDS011;69234;47.446;21.636;2023-12-29T01:34:26;64.83;;;62.53;;
79751;SDS011;69234;47.446;21.636;2023-12-29T01:35:02;62.77;;;60.70;;
79751;SDS011;69234;47.446;21.636;2023-12-29T01:35:34;61.47;;;59.57;;
79751;SDS011;69234;47.446;21.636;2023-12-29T01:36:05;62.37;;;60.47;;
79751;SDS011;69234;47.446;21.636;2023-12-29T01:36:36;61.13;;;59.47;;
79751;SDS011;69234;47.446;21.636;2023-12-29T01:37:07;61.23;;;59.50;;
79751;SDS011;69234;47.446;21.636;2023-12-29T01:37:38;55.63;;;54.17;;
79751;SDS011;69234;47.446;21.636;2023-12-29T01:38:08;53.70;;;52.40;;
79751;SDS011;69234;47.446;21.636;2023-12-29T01:38:39;54.30;;;52.90;;
79751;SDS011;69234;47.446;21.636;2023-12-29T01:39:10;54.87;;;53.27;;
79751;SDS011;69234;47.446;21.636;2023-12-29T01:39:41;54.17;;;52.67;;
79751;SDS011;69234;47.446;21.636;2023-12-29T01:40:12;54.70;;;53.20;;
79751;SDS011;69234;47.446;21.636;2023-12-29T01:40:46;54.17;;;52.60;;
79751;SDS011;69234;47.446;21.636;2023-12-29T01:41:20;52.03;;;50.87;;
79751;SDS011;69234;47.446;21.636;2023-12-29T01:41:51;52.57;;;51.43;;
79751;SDS011;69234;47.446;21.636;2023-12-29T01:42:22;52.17;;;51.30;;
79751;SDS011;69234;47.446;21.636;2023-12-29T01:42:53;53.00;;;51.60;;
79751;SDS011;69234;47.446;21.636;2023-12-29T01:43:24;51.63;;;50.00;;
79751;SDS011;69234;47.446;21.636;2023-12-29T01:44:31;51.50;;;49.90;;
79751;SDS011;69234;47.446;21.636;2023-12-29T01:45:03;51.13;;;49.37;;
79751;SDS011;69234;47.446;21.636;2023-12-29T01:45:36;50.57;;;49.07;;
79751;SDS011;69234;47.446;21.636;2023-12-29T01:46:06;51.20;;;49.63;;
79751;SDS011;69234;47.446;21.636;2023-12-29T01:46:37;51.20;;;49.53;;
79751;SDS011;69234;47.446;21.636;2023-12-29T01:47:13;51.57;;;49.77;;
79751;SDS011;69234;47.446;21.636;2023-12-29T01:47:49;50.33;;;48.97;;
79751;SDS011;69234;47.446;21.636;2023-12-29T01:48:22;50.43;;;49.13;;
79751;SDS011;69234;47.446;21.636;2023-12-29T01:48:54;49.67;;;48.43;;
79751;SDS011;69234;47.446;21.636;2023-12-29T01:49:26;50.53;;;49.23;;
79751;SDS011;69234;47.446;21.636;2023-12-29T01:49:59;51.57;;;50.37;;
79751;SDS011;69234;47.446;21.636;2023-12-29T01:50:30;51.23;;;49.97;;
79751;SDS011;69234;47.446;21.636;2023-12-29T01:51:01;51.43;;;50.23;;
79751;SDS011;69234;47.446;21.636;2023-12-29T01:51:33;51.47;;;49.83;;
79751;SDS011;69234;47.446;21.636;2023-12-29T01:52:04;50.67;;;49.17;;
79751;SDS011;69234;47.446;21.636;2023-12-29T01:52:35;51.90;;;50.43;;
79751;SDS011;69234;47.446;21.636;2023-12-29T01:53:06;51.07;;;49.53;;
79751;SDS011;69234;47.446;21.636;2023-12-29T01:53:37;49.77;;;48.83;;
79751;SDS011;69234;47.446;21.636;2023-12-29T01:54:08;49.20;;;48.10;;
79751;SDS011;69234;47.446;21.636;2023-12-29T01:54:41;51.63;;;50.10;;
79751;SDS011;69234;47.446;21.636;2023-12-29T01:55:17;50.77;;;49.43;;
79751;SDS011;69234;47.446;21.636;2023-12-29T01:55:53;49.43;;;48.23;;
79751;SDS011;69234;47.446;21.636;2023-12-29T01:56:23;50.63;;;49.40;;
79751;SDS011;69234;47.446;21.636;2023-12-29T01:56:56;51.73;;;50.33;;
79751;SDS011;69234;47.446;21.636;2023-12-29T01:57:29;51.10;;;49.87;;
79751;SDS011;69234;47.446;21.636;2023-12-29T01:58:00;49.80;;;48.77;;
79751;SDS011;69234;47.446;21.636;2023-12-29T01:58:32;51.40;;;50.30;;
79751;SDS011;69234;47.446;21.636;2023-12-29T01:59:03;51.73;;;50.37;;
79751;SDS011;69234;47.446;21.636;2023-12-29T01:59:35;52.10;;;50.77;;
79751;SDS011;69234;47.446;21.636;2023-12-29T02:00:06;53.47;;;52.00;;
79751;SDS011;69234;47.446;21.636;2023-12-29T02:00:42;53.97;;;52.50;;
79751;SDS011;69234;47.446;21.636;2023-12-29T02:01:13;52.37;;;51.33;;
79751;SDS011;69234;47.446;21.636;2023-12-29T02:01:47;51.03;;;50.23;;
79751;SDS011;69234;47.446;21.636;2023-12-29T02:02:18;52.30;;;51.17;;
79751;SDS011;69234;47.446;21.636;2023-12-29T02:02:49;52.50;;;51.10;;
79751;SDS011;69234;47.446;21.636;2023-12-29T02:03:20;53.43;;;51.77;;
79751;SDS011;69234;47.446;21.636;2023-12-29T02:03:52;52.50;;;51.07;;
79751;SDS011;69234;47.446;21.636;2023-12-29T02:04:26;50.27;;;49.37;;
79751;SDS011;69234;47.446;21.636;2023-12-29T02:04:58;51.73;;;50.53;;
79751;SDS011;69234;47.446;21.636;2023-12-29T02:05:30;52.17;;;50.67;;
79751;SDS011;69234;47.446;21.636;2023-12-29T02:06:06;52.70;;;51.03;;
79751;SDS011;69234;47.446;21.636;2023-12-29T02:06:38;52.13;;;50.70;;
79751;SDS011;69234;47.446;21.636;2023-12-29T02:07:10;50.83;;;49.37;;
79751;SDS011;69234;47.446;21.636;2023-12-29T02:07:41;52.53;;;51.00;;
79751;SDS011;69234;47.446;21.636;2023-12-29T02:08:13;52.47;;;50.93;;
79751;SDS011;69234;47.446;21.636;2023-12-29T02:08:44;53.43;;;51.93;;
79751;SDS011;69234;47.446;21.636;2023-12-29T02:09:16;51.57;;;50.63;;
79751;SDS011;69234;47.446;21.636;2023-12-29T02:09:48;51.93;;;50.77;;
79751;SDS011;69234;47.446;21.636;2023-12-29T02:10:21;51.53;;;50.37;;
79751;SDS011;69234;47.446;21.636;2023-12-29T02:10:53;52.63;;;51.47;;
79751;SDS011;69234;47.446;21.636;2023-12-29T02:11:25;52.87;;;51.73;;
79751;SDS011;69234;47.446;21.636;2023-12-29T02:11:56;54.27;;;53.00;;
79751;SDS011;69234;47.446;21.636;2023-12-29T02:12:28;54.53;;;53.00;;
79751;SDS011;69234;47.446;21.636;2023-12-29T02:13:00;56.33;;;54.73;;
79751;SDS011;69234;47.446;21.636;2023-12-29T02:13:31;52.67;;;51.33;;
79751;SDS011;69234;47.446;21.636;2023-12-29T02:14:02;52.77;;;51.43;;
79751;SDS011;69234;47.446;21.636;2023-12-29T02:14:33;53.90;;;52.43;;
79751;SDS011;69234;47.446;21.636;2023-12-29T02:15:04;52.30;;;51.00;;
79751;SDS011;69234;47.446;21.636;2023-12-29T02:15:36;51.00;;;49.80;;
79751;SDS011;69234;47.446;21.636;2023-12-29T02:16:12;52.27;;;50.93;;
79751;SDS011;69234;47.446;21.636;2023-12-29T02:17:10;51.97;;;50.50;;
79751;SDS011;69234;47.446;21.636;2023-12-29T02:17:59;55.93;;;53.97;;
79751;SDS011;69234;47.446;21.636;2023-12-29T02:18:34;56.87;;;55.07;;
79751;SDS011;69234;47.446;21.636;2023-12-29T02:19:13;56.90;;;55.03;;
79751;SDS011;69234;47.446;21.636;2023-12-29T02:20:14;57.70;;;56.03;;
79751;SDS011;69234;47.446;21.636;2023-12-29T02:20:46;57.10;;;55.50;;
79751;SDS011;69234;47.446;21.636;2023-12-29T02:21:22;56.27;;;54.47;;
79751;SDS011;69234;47.446;21.636;2023-12-29T02:21:55;55.13;;;53.37;;
79751;SDS011;69234;47.446;21.636;2023-12-29T02:22:26;53.03;;;51.40;;
79751;SDS011;69234;47.446;21.636;2023-12-29T02:22:57;53.90;;;51.97;;
79751;SDS011;69234;47.446;21.636;2023-12-29T02:23:28;52.97;;;51.30;;
79751;SDS011;69234;47.446;21.636;2023-12-29T02:23:59;52.47;;;51.10;;
79751;SDS011;69234;47.446;21.636;2023-12-29T02:24:30;51.83;;;50.70;;
79751;SDS011;69234;47.446;21.636;2023-12-29T02:25:04;53.17;;;51.73;;
79751;SDS011;69234;47.446;21.636;2023-12-29T02:25:36;53.80;;;52.17;;
79751;SDS011;69234;47.446;21.636;2023-12-29T02:26:07;52.90;;;51.40;;
79751;SDS011;69234;47.446;21.636;2023-12-29T02:26:42;54.23;;;52.90;;
79751;SDS011;69234;47.446;21.636;2023-12-29T02:28:30;52.43;;;50.80;;
79751;SDS011;69234;47.446;21.636;2023-12-29T02:29:05;54.07;;;52.53;;
79751;SDS011;69234;47.446;21.636;2023-12-29T02:29:44;52.83;;;51.77;;
79751;SDS011;69234;47.446;21.636;2023-12-29T02:31:31;53.40;;;52.50;;
79751;SDS011;69234;47.446;21.636;2023-12-29T02:32:11;55.10;;;53.37;;
79751;SDS011;69234;47.446;21.636;2023-12-29T02:32:49;53.07;;;51.90;;
79751;SDS011;69234;47.446;21.636;2023-12-29T02:33:30;54.23;;;52.97;;
79751;SDS011;69234;47.446;21.636;2023-12-29T02:34:06;55.50;;;54.00;;
79751;SDS011;69234;47.446;21.636;2023-12-29T02:34:41;57.17;;;55.57;;
79751;SDS011;69234;47.446;21.636;2023-12-29T02:35:17;58.17;;;56.67;;
79751;SDS011;69234;47.446;21.636;2023-12-29T02:35:57;57.37;;;56.10;;
79751;SDS011;69234;47.446;21.636;2023-12-29T02:36:32;55.80;;;54.40;;
79751;SDS011;69234;47.446;21.636;2023-12-29T02:37:12;58.47;;;56.83;;
79751;SDS011;69234;47.446;21.636;2023-12-29T02:37:44;57.23;;;55.70;;
79751;SDS011;69234;47.446;21.636;2023-12-29T02:38:17;59.87;;;58.13;;
79751;SDS011;69234;47.446;21.636;2023-12-29T02:38:48;61.50;;;59.63;;
79751;SDS011;69234;47.446;21.636;2023-12-29T02:39:20;62.07;;;60.57;;
79751;SDS011;69234;47.446;21.636;2023-12-29T02:39:51;61.43;;;59.93;;
79751;SDS011;69234;47.446;21.636;2023-12-29T02:40:23;61.27;;;59.53;;
79751;SDS011;69234;47.446;21.636;2023-12-29T02:40:56;58.93;;;57.13;;
79751;SDS011;69234;47.446;21.636;2023-12-29T02:41:27;57.40;;;55.50;;
79751;SDS011;69234;47.446;21.636;2023-12-29T02:41:58;55.97;;;54.13;;
79751;SDS011;69234;47.446;21.636;2023-12-29T02:42:28;54.53;;;52.90;;
79751;SDS011;69234;47.446;21.636;2023-12-29T02:42:59;54.83;;;53.03;;
79751;SDS011;69234;47.446;21.636;2023-12-29T02:43:31;55.00;;;53.17;;
79751;SDS011;69234;47.446;21.636;2023-12-29T02:44:02;53.03;;;51.70;;
79751;SDS011;69234;47.446;21.636;2023-12-29T02:44:34;53.17;;;51.83;;
79751;SDS011;69234;47.446;21.636;2023-12-29T02:45:05;54.53;;;53.07;;
79751;SDS011;69234;47.446;21.636;2023-12-29T02:45:37;54.23;;;52.57;;
79751;SDS011;69234;47.446;21.636;2023-12-29T02:46:08;54.97;;;53.30;;
79751;SDS011;69234;47.446;21.636;2023-12-29T02:46:39;56.30;;;54.57;;
79751;SDS011;69234;47.446;21.636;2023-12-29T02:47:10;57.33;;;55.50;;
79751;SDS011;69234;47.446;21.636;2023-12-29T02:47:41;56.33;;;54.73;;
79751;SDS011;69234;47.446;21.636;2023-12-29T02:48:13;54.70;;;53.47;;
79751;SDS011;69234;47.446;21.636;2023-12-29T02:48:44;56.03;;;54.30;;
79751;SDS011;69234;47.446;21.636;2023-12-29T02:49:15;55.03;;;53.47;;
79751;SDS011;69234;47.446;21.636;2023-12-29T02:49:46;53.67;;;52.10;;
79751;SDS011;69234;47.446;21.636;2023-12-29T02:50:19;56.23;;;54.73;;
79751;SDS011;69234;47.446;21.636;2023-12-29T02:50:50;57.10;;;55.93;;
79751;SDS011;69234;47.446;21.636;2023-12-29T02:51:21;56.17;;;54.97;;
79751;SDS011;69234;47.446;21.636;2023-12-29T02:51:52;57.97;;;56.50;;
79751;SDS011;69234;47.446;21.636;2023-12-29T02:52:23;57.83;;;55.93;;
79751;SDS011;69234;47.446;21.636;2023-12-29T02:52:54;55.53;;;54.00;;
79751;SDS011;69234;47.446;21.636;2023-12-29T02:53:25;55.60;;;54.23;;
79751;SDS011;69234;47.446;21.636;2023-12-29T02:53:55;56.10;;;54.57;;
79751;SDS011;69234;47.446;21.636;2023-12-29T02:54:26;57.23;;;55.33;;
79751;SDS011;69234;47.446;21.636;2023-12-29T02:54:57;57.67;;;55.97;;
79751;SDS011;69234;47.446;21.636;2023-12-29T02:55:28;58.00;;;56.33;;
79751;SDS011;69234;47.446;21.636;2023-12-29T02:55:59;57.40;;;55.87;;
79751;SDS011;69234;47.446;21.636;2023-12-29T02:56:30;57.00;;;55.40;;
79751;SDS011;69234;47.446;21.636;2023-12-29T02:57:01;56.70;;;55.10;;
79751;SDS011;69234;47.446;21.636;2023-12-29T02:57:33;55.97;;;54.33;;
79751;SDS011;69234;47.446;21.636;2023-12-29T02:58:05;57.40;;;55.67;;
79751;SDS011;69234;47.446;21.636;2023-12-29T02:58:36;59.33;;;57.27;;
79751;SDS011;69234;47.446;21.636;2023-12-29T02:59:07;57.73;;;56.10;;
79751;SDS011;69234;47.446;21.636;2023-12-29T02:59:38;56.23;;;54.97;;
79751;SDS011;69234;47.446;21.636;2023-12-29T03:00:10;56.63;;;55.17;;
79751;SDS011;69234;47.446;21.636;2023-12-29T03:00:41;59.00;;;56.97;;
79751;SDS011;69234;47.446;21.636;2023-12-29T03:01:12;58.63;;;56.77;;
79751;SDS011;69234;47.446;21.636;2023-12-29T03:01:44;58.27;;;56.57;;
79751;SDS011;69234;47.446;21.636;2023-12-29T03:02:15;57.87;;;56.27;;
79751;SDS011;69234;47.446;21.636;2023-12-29T03:02:46;57.67;;;56.00;;
79751;SDS011;69234;47.446;21.636;2023-12-29T03:03:17;58.33;;;56.87;;
79751;SDS011;69234;47.446;21.636;2023-12-29T03:03:48;58.73;;;57.20;;
79751;SDS011;69234;47.446;21.636;2023-12-29T03:04:19;56.70;;;55.23;;
79751;SDS011;69234;47.446;21.636;2023-12-29T03:04:50;57.17;;;55.70;;
79751;SDS011;69234;47.446;21.636;2023-12-29T03:05:21;57.20;;;55.80;;
79751;SDS011;69234;47.446;21.636;2023-12-29T03:05:51;56.97;;;55.50;;
79751;SDS011;69234;47.446;21.636;2023-12-29T03:06:22;56.07;;;54.37;;
79751;SDS011;69234;47.446;21.636;2023-12-29T03:06:55;58.83;;;57.10;;
79751;SDS011;69234;47.446;21.636;2023-12-29T03:07:26;61.30;;;59.73;;